Time;durP1;ratioP1;P1;durP2;ratioP2;P2;SDS_P1;SDS_P2;PMS_P1;PMS_P2;Temp;Humidity;BMP_temperature;BMP_pressure;BME280_temperature;BME280_humidity;BME280_pressure;Samples;Min_cycle;Max_cycle;Signal;HPM_P1;HPM_P2
2022/05/07 00:01:03;;;;;;;9.35;4.20;;;;;;;12.87;70.95;102449.06;7373950;19;20686;-78
2022/05/07 00:03:32;;;;;;;9.02;3.40;;;;;;;12.85;71.42;102453.41;7376659;19;20010;-75
2022/05/07 00:06:05;;;;;;;10.80;4.15;;;;;;;12.83;71.66;102462.97;7375896;19;20011;-68
2022/05/07 00:08:35;;;;;;;9.95;3.85;;;;;;;12.81;71.57;102457.69;7375506;19;20035;-68
2022/05/07 00:11:06;;;;;;;10.23;3.78;;;;;;;12.80;71.92;102449.72;7372546;19;20455;-68
2022/05/07 00:13:42;;;;;;;12.93;5.07;;;;;;;12.85;71.94;102456.03;7373269;19;20044;-69
2022/05/07 00:18:54;;;;;;;10.57;4.40;;;;;;;12.80;73.24;102452.38;7373914;19;20026;-70
2022/05/07 00:21:28;;;;;;;11.10;4.40;;;;;;;12.75;73.64;102445.22;7369421;19;20634;-69
2022/05/07 00:23:58;;;;;;;;;;;;;;;12.71;74.33;102448.59;7376363;19;20011;-68
2022/05/07 00:26:29;;;;;;;9.70;3.70;;;;;;;12.67;74.66;102435.31;7368869;19;20303;-68
2022/05/07 00:29:01;;;;;;;10.90;4.22;;;;;;;12.66;75.42;102438.78;7371066;19;20026;-68
2022/05/07 00:31:31;;;;;;;13.80;4.45;;;;;;;12.64;76.52;102429.94;7374823;19;20010;-68
2022/05/07 00:34:05;;;;;;;10.00;4.22;;;;;;;12.60;76.22;102422.81;7370404;19;20014;-68
2022/05/07 00:36:39;;;;;;;13.55;4.78;;;;;;;12.55;76.77;102422.66;7371258;19;20043;-68
2022/05/07 00:39:09;;;;;;;12.27;4.80;;;;;;;12.52;77.70;102419.94;7369778;19;20425;-68
2022/05/07 00:41:41;;;;;;;13.82;5.03;;;;;;;12.45;78.38;102423.25;7372381;19;20014;-68
2022/05/07 00:44:25;;;;;;;12.43;4.75;;;;;;;12.43;78.85;102424.97;7368045;19;20582;-68
2022/05/07 00:46:55;;;;;;;11.55;5.28;;;;;;;12.41;80.45;102431.91;7370054;19;20563;-69
2022/05/07 00:49:25;;;;;;;10.82;4.93;;;;;;;12.38;80.39;102430.06;7372928;19;20495;-68
2022/05/07 00:51:58;;;;;;;17.63;5.68;;;;;;;12.40;80.17;102430.13;7371478;19;20017;-76
2022/05/07 00:54:30;;;;;;;14.88;6.13;;;;;;;12.40;81.67;102420.50;7371113;19;20082;-69
2022/05/07 00:56:59;;;;;;;15.18;6.28;;;;;;;12.39;81.67;102429.22;7369289;19;20011;-69
2022/05/07 00:59:29;;;;;;;17.02;6.32;;;;;;;12.39;82.63;102425.72;7371301;19;20015;-68
2022/05/07 01:02:00;;;;;;;16.92;6.72;;;;;;;12.41;83.12;102422.28;7369621;19;20947;-70
2022/05/07 01:04:31;;;;;;;16.70;6.60;;;;;;;12.37;84.29;102420.41;7369923;19;20066;-69
2022/05/07 01:07:05;;;;;;;20.90;7.22;;;;;;;12.44;84.46;102421.47;7370834;19;20139;-69
2022/05/07 01:09:38;;;;;;;20.65;6.82;;;;;;;12.42;84.96;102425.81;7373199;19;20014;-70
2022/05/07 01:12:10;;;;;;;18.95;7.70;;;;;;;12.32;87.08;102421.09;7377331;19;20049;-68
2022/05/07 01:14:40;;;;;;;19.92;7.43;;;;;;;12.32;86.63;102416.72;7376799;19;20326;-67
2022/05/07 01:17:11;;;;;;;21.88;6.95;;;;;;;12.28;88.02;102414.84;7378319;19;20019;-70
2022/05/07 01:19:42;;;;;;;16.98;8.07;;;;;;;12.26;88.15;102413.91;7379414;19;20523;-69
2022/05/07 01:22:16;;;;;;;18.60;7.68;;;;;;;12.25;88.73;102416.50;7378542;19;20010;-69
2022/05/07 01:24:47;;;;;;;18.70;7.90;;;;;;;12.21;89.33;102425.13;7377143;19;20011;-69
2022/05/07 01:27:17;;;;;;;21.23;8.43;;;;;;;12.19;90.09;102418.94;7375684;19;20011;-68
2022/05/07 01:29:54;;;;;;;21.05;7.68;;;;;;;12.15;89.40;102412.69;7376903;19;20020;-69
2022/05/07 01:32:24;;;;;;;25.13;10.35;;;;;;;12.10;91.20;102419.53;7380563;19;20182;-69
2022/05/07 01:34:54;;;;;;;23.75;9.40;;;;;;;12.05;91.04;102411.50;7379034;19;20015;-69
2022/05/07 01:37:27;;;;;;;19.58;8.43;;;;;;;12.07;92.32;102420.31;7377291;19;20031;-68
2022/05/07 01:39:58;;;;;;;21.52;8.15;;;;;;;12.05;91.96;102415.84;7377884;19;20009;-69
2022/05/07 01:42:31;;;;;;;22.52;9.70;;;;;;;12.00;93.64;102415.72;7377811;19;20002;-68
2022/05/07 01:45:03;;;;;;;22.83;8.80;;;;;;;11.98;93.81;102409.50;7377292;19;20057;-68
2022/05/07 01:50:16;;;;;;;26.67;9.10;;;;;;;11.97;94.97;102412.09;7378884;19;20010;-69
2022/05/07 01:52:48;;;;;;;20.80;10.25;;;;;;;11.98;94.36;102404.25;7372277;19;20805;-70
2022/05/07 01:55:18;;;;;;;19.08;7.38;;;;;;;11.99;92.95;102406.03;7377817;19;20412;-70
2022/05/07 01:57:47;;;;;;;24.05;9.63;;;;;;;11.96;95.41;102405.03;7378281;19;20114;-68
2022/05/07 02:00:20;;;;;;;25.70;9.10;;;;;;;11.93;95.81;102400.56;7377144;19;20011;-68
2022/05/07 02:02:50;;;;;;;20.80;8.90;;;;;;;11.94;95.52;102399.72;7377264;19;20010;-68
2022/05/07 02:05:21;;;;;;;23.30;9.23;;;;;;;11.93;95.42;102394.44;7374632;19;20014;-68
2022/05/07 02:07:55;;;;;;;26.60;9.73;;;;;;;11.91;96.22;102399.63;7374665;19;20010;-68
2022/05/07 02:10:25;;;;;;;21.75;9.07;;;;;;;11.87;96.98;102389.84;7376809;19;20006;-69
2022/05/07 02:12:55;;;;;;;26.25;8.57;;;;;;;11.85;97.28;102393.28;7373298;19;20010;-68
2022/05/07 02:15:25;;;;;;;23.25;8.88;;;;;;;11.85;96.92;102388.03;7376041;19;20407;-69
2022/05/07 02:17:56;;;;;;;22.23;10.70;;;;;;;11.83;96.76;102392.34;7375758;19;20018;-67
2022/05/07 02:20:26;;;;;;;19.58;9.30;;;;;;;11.79;96.41;102391.34;7376156;19;20006;-70
2022/05/07 02:22:59;;;;;;;19.02;9.95;;;;;;;11.80;97.50;102398.38;7376257;19;20015;-68
2022/05/07 02:25:30;;;;;;;24.70;9.57;;;;;;;11.79;97.37;102392.22;7376601;19;20039;-68
2022/05/07 02:28:00;;;;;;;25.67;9.50;;;;;;;11.77;97.92;102395.66;7371245;19;20015;-69
2022/05/07 02:30:31;;;;;;;22.95;8.93;;;;;;;11.76;97.06;102388.56;7380597;19;20113;-68
2022/05/07 02:33:03;;;;;;;23.40;9.17;;;;;;;11.75;97.63;102400.81;7376487;19;20015;-68
2022/05/07 02:35:35;;;;;;;28.08;9.85;;;;;;;11.75;96.71;102395.56;7376158;19;20081;-69
2022/05/07 02:38:10;;;;;;;21.55;9.45;;;;;;;11.73;97.50;102402.50;7375912;19;20018;-69
2022/05/07 02:43:23;;;;;;;24.27;9.82;;;;;;;11.72;98.15;102405.09;7374348;19;20006;-69
2022/05/07 02:45:53;;;;;;;21.48;9.38;;;;;;;11.73;98.42;102401.63;7373978;19;20045;-68
2022/05/07 02:48:22;;;;;;;25.88;10.18;;;;;;;11.74;99.36;102400.78;7372814;19;20088;-68
2022/05/07 02:50:56;;;;;;;25.63;10.27;;;;;;;11.75;98.70;102406.09;7376260;19;20039;-68
2022/05/07 02:53:30;;;;;;;23.65;9.85;;;;;;;11.76;99.07;102413.13;7371043;19;20288;-68
2022/05/07 02:56:00;;;;;;;25.30;9.70;;;;;;;11.76;99.09;102406.97;7375442;19;20015;-68
2022/05/07 02:58:32;;;;;;;26.98;10.07;;;;;;;11.77;98.97;102404.44;7375259;19;20015;-69
2022/05/07 03:01:05;;;;;;;21.73;9.73;;;;;;;11.77;99.89;102403.53;7374562;19;20007;-68
2022/05/07 03:03:35;;;;;;;26.70;11.70;;;;;;;11.74;100.00;102408.66;7375854;19;20588;-68
2022/05/07 03:06:08;;;;;;;24.35;10.20;;;;;;;11.77;100.00;102414.06;7377560;19;20039;-69
2022/05/07 03:08:40;;;;;;;31.85;11.77;;;;;;;11.77;100.00;102406.16;7374155;19;20062;-68
2022/05/07 03:11:11;;;;;;;27.58;11.32;;;;;;;11.75;99.92;102402.56;7373051;19;20423;-68
2022/05/07 03:13:40;;;;;;;30.52;11.40;;;;;;;11.76;100.00;102406.97;7373782;19;20010;-68
2022/05/07 03:16:10;;;;;;;28.08;12.63;;;;;;;11.77;100.00;102408.81;7373166;19;20094;-68
2022/05/07 03:18:40;;;;;;;30.52;12.38;;;;;;;11.76;100.00;102414.88;7374328;19;20014;-68
2022/05/07 03:21:10;;;;;;;30.88;11.05;;;;;;;11.76;100.00;102401.72;7374257;19;20014;-68
2022/05/07 03:23:45;;;;;;;29.38;12.20;;;;;;;11.75;100.00;102407.81;7372564;19;20015;-68
2022/05/07 03:26:17;;;;;;;30.92;12.90;;;;;;;11.72;100.00;102411.25;7373746;19;20489;-68
2022/05/07 03:28:47;;;;;;;36.80;13.20;;;;;;;11.73;100.00;102406.88;7369373;19;20057;-68
2022/05/07 03:31:18;;;;;;;33.03;13.27;;;;;;;11.71;100.00;102409.44;7376800;19;20032;-68
2022/05/07 03:33:48;;;;;;;28.83;12.43;;;;;;;11.70;100.00;102406.78;7371861;19;20022;-69
2022/05/07 03:36:20;;;;;;;36.75;13.93;;;;;;;11.66;100.00;102404.88;7374012;19;20328;-68
2022/05/07 03:38:53;;;;;;;27.27;11.98;;;;;;;11.67;100.00;102406.66;7372681;19;20014;-67
2022/05/07 03:41:23;;;;;;;30.55;12.20;;;;;;;11.64;100.00;102411.81;7374793;19;20101;-69
2022/05/07 03:43:53;;;;;;;28.25;11.20;;;;;;;11.61;100.00;102412.59;7376607;19;20465;-68
2022/05/07 03:46:25;;;;;;;28.50;11.40;;;;;;;11.61;100.00;102411.72;7371960;19;20045;-69
2022/05/07 03:48:55;;;;;;;42.83;15.00;;;;;;;11.60;100.00;102420.44;7372938;19;20010;-68
2022/05/07 03:51:25;;;;;;;34.63;13.25;;;;;;;11.59;100.00;102418.66;7374880;19;20583;-68
2022/05/07 03:53:54;;;;;;;30.08;11.85;;;;;;;11.58;100.00;102430.91;7368489;19;20393;-69
2022/05/07 03:56:26;;;;;;;28.95;12.68;;;;;;;11.54;100.00;102418.50;7373561;19;20482;-70
2022/05/07 03:58:59;;;;;;;32.47;13.80;;;;;;;11.51;100.00;102428.00;7376042;19;20035;-69
2022/05/07 04:01:34;;;;;;;30.30;14.10;;;;;;;11.50;100.00;102428.84;7370133;19;20070;-70
2022/05/07 04:04:04;;;;;;;30.40;12.80;;;;;;;11.50;100.00;102435.00;7373626;19;20014;-69
2022/05/07 04:06:35;;;;;;;29.00;13.07;;;;;;;11.48;100.00;102431.41;7372339;19;20012;-68
2022/05/07 04:09:08;;;;;;;31.20;13.27;;;;;;;11.48;100.00;102421.81;7373436;19;20027;-68
2022/05/07 04:11:37;;;;;;;30.83;14.32;;;;;;;11.49;100.00;102433.22;7373465;19;20014;-68
2022/05/07 04:14:09;;;;;;;34.55;15.05;;;;;;;11.46;100.00;102434.00;7373224;19;20483;-68
2022/05/07 04:16:39;;;;;;;36.92;14.15;;;;;;;11.48;100.00;102431.41;7372162;19;20737;-68
2022/05/07 04:19:14;;;;;;;35.23;14.40;;;;;;;11.55;100.00;102432.53;7373130;19;20123;-68
2022/05/07 04:21:44;;;;;;;34.05;13.63;;;;;;;11.57;100.00;102442.25;7372304;19;20010;-69
2022/05/07 04:24:16;;;;;;;33.72;14.73;;;;;;;11.56;100.00;102442.19;7372703;19;20032;-69
2022/05/07 04:26:46;;;;;;;35.03;13.25;;;;;;;11.58;100.00;102443.16;7372686;19;20361;-68
2022/05/07 04:29:16;;;;;;;32.90;14.77;;;;;;;11.59;100.00;102442.31;7370876;19;20018;-69
2022/05/07 04:31:47;;;;;;;33.50;14.43;;;;;;;11.61;100.00;102443.25;7373528;19;20011;-69
2022/05/07 04:34:18;;;;;;;40.30;14.77;;;;;;;11.62;100.00;102445.94;7372973;19;20036;-69
2022/05/07 04:36:49;;;;;;;40.55;15.63;;;;;;;11.64;100.00;102448.63;7371873;19;20015;-69
2022/05/07 04:39:22;;;;;;;35.13;14.68;;;;;;;11.66;100.00;102446.94;7372765;19;20018;-69
2022/05/07 04:41:51;;;;;;;33.47;14.48;;;;;;;11.68;100.00;102454.03;7371416;19;20019;-69
2022/05/07 04:44:21;;;;;;;33.25;13.90;;;;;;;11.72;100.00;102447.16;7375200;19;20011;-69
2022/05/07 04:46:51;;;;;;;32.90;14.52;;;;;;;11.72;100.00;102452.41;7379867;19;20838;-69
2022/05/07 04:49:23;;;;;;;35.00;16.15;;;;;;;11.67;100.00;102449.63;7376693;19;20476;-69
2022/05/07 04:51:53;;;;;;;31.55;14.73;;;;;;;11.72;100.00;102447.16;7379412;19;20263;-69
2022/05/07 04:54:25;;;;;;;39.13;16.45;;;;;;;11.75;100.00;102449.88;7375052;19;20387;-69
2022/05/07 04:56:55;;;;;;;36.08;16.17;;;;;;;11.78;100.00;102457.91;7380734;19;20014;-69
2022/05/07 04:59:25;;;;;;;38.22;14.38;;;;;;;11.79;100.00;102449.16;7377401;19;20750;-70
2022/05/07 05:01:55;;;;;;;35.97;15.65;;;;;;;11.81;100.00;102457.09;7377799;19;20389;-71
2022/05/07 05:04:25;;;;;;;38.50;16.45;;;;;;;11.85;100.00;102453.75;7376824;19;20015;-69
2022/05/07 05:06:55;;;;;;;31.85;14.93;;;;;;;11.86;100.00;102453.78;7377898;19;20547;-71
2022/05/07 05:09:31;;;;;;;34.92;14.48;;;;;;;11.89;100.00;102458.25;7373680;19;20013;-68
2022/05/07 05:12:00;;;;;;;34.22;15.43;;;;;;;11.87;100.00;102457.31;7380045;19;20041;-68
2022/05/07 05:17:15;;;;;;;27.85;14.13;;;;;;;11.96;100.00;102463.78;7376506;19;20070;-72
2022/05/07 05:19:45;;;;;;;36.78;15.07;;;;;;;12.02;100.00;102463.97;7377789;19;20021;-71
2022/05/07 05:22:15;;;;;;;37.13;17.08;;;;;;;12.08;100.00;102471.19;7380152;19;20003;-69
2022/05/07 05:24:47;;;;;;;34.50;15.10;;;;;;;12.12;100.00;102473.06;7380406;19;20058;-79
2022/05/07 05:27:17;;;;;;;29.20;15.98;;;;;;;12.19;100.00;102474.16;7381148;19;20043;-78
2022/05/07 05:29:47;;;;;;;33.15;14.18;;;;;;;12.24;100.00;102469.94;7377231;19;20353;-78
2022/05/07 05:32:17;;;;;;;37.20;16.38;;;;;;;12.29;100.00;102473.63;7380817;19;20023;-79
2022/05/07 05:34:49;;;;;;;37.10;17.08;;;;;;;12.35;100.00;102484.34;7378500;19;20134;-77
2022/05/07 05:37:19;;;;;;;39.58;16.45;;;;;;;12.38;100.00;102479.19;7380238;19;20086;-79
2022/05/07 05:39:52;;;;;;;35.58;15.90;;;;;;;12.42;100.00;102478.44;7379039;19;20014;-77
2022/05/07 05:42:22;;;;;;;;;;;;;;;12.49;100.00;102472.47;7380116;19;20010;-77
2022/05/07 05:44:52;;;;;;;35.47;16.08;;;;;;;12.51;100.00;102475.16;7379014;19;19914;-77
2022/05/07 05:47:21;;;;;;;38.88;17.55;;;;;;;12.50;100.00;102478.63;7379719;19;20018;-78
2022/05/07 05:49:52;;;;;;;35.72;16.95;;;;;;;12.53;100.00;102474.38;7376133;19;20010;-78
2022/05/07 05:52:23;;;;;;;39.50;17.08;;;;;;;12.57;100.00;102470.97;7373750;19;20604;-78
2022/05/07 05:54:56;;;;;;;37.17;17.27;;;;;;;12.64;100.00;102480.84;7377751;19;20018;-79
2022/05/07 05:57:26;;;;;;;33.45;15.80;;;;;;;12.78;100.00;102489.19;7376792;19;20015;-79
2022/05/07 05:59:57;;;;;;;39.75;17.30;;;;;;;12.89;100.00;102484.22;7375082;19;20014;-78
2022/05/07 06:02:27;;;;;;;33.22;16.17;;;;;;;13.14;100.00;102485.84;7376329;19;20007;-78
2022/05/07 06:04:58;;;;;;;33.15;15.95;;;;;;;13.56;100.00;102480.88;7378530;19;20445;-79
2022/05/07 06:07:28;;;;;;;32.72;17.08;;;;;;;13.64;99.36;102477.59;7377315;19;20077;-78
2022/05/07 06:10:00;;;;;;;36.95;17.80;;;;;;;13.77;98.73;102484.09;7375189;19;20375;-77
2022/05/07 06:12:31;;;;;;;34.85;16.52;;;;;;;13.92;96.09;102479.22;7378119;19;20006;-69
2022/05/07 06:15:01;;;;;;;33.42;17.70;;;;;;;14.22;94.96;102480.84;7376786;19;20015;-69
2022/05/07 06:17:32;;;;;;;34.95;16.50;;;;;;;14.56;92.78;102483.44;7374537;19;20529;-69
2022/05/07 06:20:02;;;;;;;37.75;17.45;;;;;;;14.64;91.94;102484.50;7379773;19;20084;-69
2022/05/07 06:22:33;;;;;;;35.90;16.65;;;;;;;14.99;91.80;102489.66;7380744;19;20481;-68
2022/05/07 06:27:48;;;;;;;37.55;16.65;;;;;;;15.52;86.65;102487.22;7379388;19;20002;-77
2022/05/07 06:30:17;;;;;;;33.88;15.40;;;;;;;15.42;86.45;102486.16;7377628;19;20026;-70
2022/05/07 06:32:47;;;;;;;33.63;16.05;;;;;;;15.37;86.23;102494.00;7380198;19;20014;-68
2022/05/07 06:35:18;;;;;;;33.42;15.50;;;;;;;15.63;86.60;102497.16;7381037;19;20007;-76
2022/05/07 06:37:48;;;;;;;30.65;14.80;;;;;;;16.32;86.36;102491.28;7380312;19;20813;-69
2022/05/07 06:40:21;;;;;;;30.70;15.27;;;;;;;16.33;81.58;102492.19;7377803;19;20017;-78
2022/05/07 06:42:51;;;;;;;32.22;15.13;;;;;;;16.78;80.77;102485.78;7379332;19;20006;-69
2022/05/07 06:45:24;;;;;;;31.98;14.75;;;;;;;17.13;79.01;102489.81;7378683;19;20026;-70
2022/05/07 06:47:57;;;;;;;24.05;12.85;;;;;;;17.43;78.37;102485.72;7380872;19;20543;-70
2022/05/07 06:50:27;;;;;;;29.75;13.25;;;;;;;17.33;77.19;102490.94;7376452;19;20022;-70
2022/05/07 06:52:58;;;;;;;30.15;14.52;;;;;;;17.28;77.78;102492.63;7374954;19;20013;-79
2022/05/07 06:55:32;;;;;;;26.15;12.38;;;;;;;17.43;77.19;102496.34;7379422;19;20014;-79
2022/05/07 06:58:05;;;;;;;24.40;12.02;;;;;;;17.56;77.73;102495.59;7381063;19;20093;-79
2022/05/07 07:00:53;;;;;;;21.13;11.00;;;;;;;17.20;74.51;102496.06;7379590;19;20095;-78
2022/05/07 07:03:24;;;;;;;26.02;12.70;;;;;;;17.57;74.78;102502.69;7379991;19;20018;-69
2022/05/07 07:05:55;;;;;;;21.27;11.30;;;;;;;17.61;75.62;102501.84;7378897;19;20014;-78
2022/05/07 07:08:29;;;;;;;26.60;13.57;;;;;;;17.66;74.58;102502.81;7375928;19;20082;-77
2022/05/07 07:11:02;;;;;;;21.35;12.38;;;;;;;17.60;75.34;102498.31;7379053;19;20026;-69
2022/05/07 07:13:32;;;;;;;21.97;11.17;;;;;;;17.39;75.19;102497.19;7376165;19;20014;-70
2022/05/07 07:16:02;;;;;;;25.20;12.65;;;;;;;17.53;75.15;102500.88;7378062;19;20256;-70
2022/05/07 07:18:32;;;;;;;25.65;11.88;;;;;;;17.41;74.63;102506.03;7378972;19;20021;-69
2022/05/07 07:21:02;;;;;;;22.77;12.13;;;;;;;17.10;75.68;102504.78;7378876;19;20019;-69
2022/05/07 07:23:32;;;;;;;21.40;10.35;;;;;;;17.47;73.46;102500.81;7379094;19;20014;-70
2022/05/07 07:26:07;;;;;;;20.13;10.65;;;;;;;17.44;73.70;102496.34;7378329;19;20448;-70
2022/05/07 07:28:36;;;;;;;21.80;11.18;;;;;;;17.56;73.54;102490.31;7374749;19;20266;-69
2022/05/07 07:31:08;;;;;;;19.35;9.32;;;;;;;17.68;72.81;102500.19;7378560;19;20022;-69
2022/05/07 07:33:39;;;;;;;20.88;10.65;;;;;;;18.07;72.09;102502.31;7376433;19;20015;-69
2022/05/07 07:36:11;;;;;;;19.50;10.48;;;;;;;18.50;68.61;102492.91;7379002;19;20073;-68
2022/05/07 07:38:42;;;;;;;18.40;10.52;;;;;;;18.55;69.04;102499.13;7377172;19;20017;-69
2022/05/07 07:41:14;;;;;;;20.08;10.40;;;;;;;18.54;67.72;102494.72;7378512;19;20111;-78
2022/05/07 07:43:45;;;;;;;18.17;10.90;;;;;;;18.69;67.86;102497.50;7377704;19;20518;-80
2022/05/07 07:48:58;;;;;;;18.25;9.93;;;;;;;19.12;67.93;102497.69;7374169;19;20017;-70
2022/05/07 07:51:28;;;;;;;18.75;10.45;;;;;;;19.63;64.76;102496.13;7372789;19;20010;-79
2022/05/07 07:53:59;;;;;;;21.70;9.95;;;;;;;19.67;64.94;102500.56;7371985;19;20010;-70
2022/05/07 07:56:32;;;;;;;16.05;9.70;;;;;;;19.25;63.64;102505.72;7378697;19;20015;-78
2022/05/07 07:59:02;;;;;;;21.20;10.93;;;;;;;19.17;64.21;102504.81;7381723;19;20357;-80
2022/05/07 08:01:32;;;;;;;18.83;9.95;;;;;;;19.06;64.35;102510.97;7379799;19;20483;-79
2022/05/07 08:04:04;;;;;;;19.40;9.93;;;;;;;19.42;63.19;102505.78;7379231;19;20022;-79
2022/05/07 08:06:35;;;;;;;19.75;10.43;;;;;;;19.62;61.91;102510.31;7378011;19;20011;-80
2022/05/07 08:11:55;;;;;;;25.95;10.75;;;;;;;19.79;63.28;102506.75;7375540;19;20011;-79
2022/05/07 08:14:25;;;;;;;24.70;12.48;;;;;;;19.26;64.23;102517.25;7376918;19;20051;-80
2022/05/07 08:16:54;;;;;;;18.88;10.70;;;;;;;19.64;62.81;102509.44;7375623;19;20437;-78
2022/05/07 08:19:27;;;;;;;18.48;10.32;;;;;;;19.12;63.30;102511.88;7374844;19;20523;-79
2022/05/07 08:21:57;;;;;;;22.70;11.20;;;;;;;19.25;63.10;102516.38;7375476;19;20018;-79
2022/05/07 08:24:27;;;;;;;23.30;10.80;;;;;;;19.66;62.01;102512.97;7376048;19;20096;-79
2022/05/07 08:26:59;;;;;;;19.50;10.25;;;;;;;20.24;59.65;102515.69;7371273;19;20006;-78
2022/05/07 08:29:32;;;;;;;20.83;10.90;;;;;;;20.03;60.34;102513.00;7371417;19;20010;-78
2022/05/07 08:32:02;;;;;;;21.92;11.75;;;;;;;19.74;59.13;102513.88;7372912;19;20090;-71
2022/05/07 08:34:32;;;;;;;19.25;10.30;;;;;;;20.06;59.10;102523.66;7373086;19;20037;-69
2022/05/07 08:37:03;;;;;;;19.75;10.23;;;;;;;19.34;60.55;102517.28;7378222;19;20048;-69
2022/05/07 08:39:32;;;;;;;17.77;9.73;;;;;;;19.72;59.83;102522.75;7376729;19;20082;-71
2022/05/07 08:42:06;;;;;;;18.88;9.38;;;;;;;20.29;59.14;102515.69;7375755;19;20489;-77
2022/05/07 08:44:37;;;;;;;20.30;9.80;;;;;;;20.62;57.40;102530.78;7376279;19;20006;-79
2022/05/07 08:47:07;;;;;;;18.08;9.80;;;;;;;20.65;57.48;102522.78;7374237;19;20045;-78
2022/05/07 08:49:37;;;;;;;18.92;10.73;;;;;;;20.39;57.50;102529.03;7376902;19;20023;-78
2022/05/07 08:52:10;;;;;;;17.88;9.52;;;;;;;20.40;57.30;102524.59;7373252;19;20011;-78
2022/05/07 08:54:40;;;;;;;16.38;9.05;;;;;;;20.14;57.73;102521.88;7373649;19;20027;-79
2022/05/07 08:57:13;;;;;;;19.67;10.45;;;;;;;20.19;57.42;102528.13;7374024;19;20017;-78
2022/05/07 08:59:43;;;;;;;17.13;8.48;;;;;;;20.24;57.01;102529.88;7372974;19;20074;-78
2022/05/07 09:02:13;;;;;;;21.98;9.40;;;;;;;19.72;58.37;102528.09;7368097;19;20006;-78
2022/05/07 09:04:43;;;;;;;18.80;9.07;;;;;;;19.44;58.63;102540.38;7369441;19;20638;-79
2022/05/07 09:07:17;;;;;;;18.90;9.40;;;;;;;19.73;57.77;102543.16;7369712;19;20459;-79
2022/05/07 09:09:50;;;;;;;15.85;9.13;;;;;;;19.71;58.49;102529.84;7367766;19;20534;-79
2022/05/07 09:12:32;;;;;;;18.38;9.88;;;;;;;19.84;57.82;102531.63;7370397;19;20122;-79
2022/05/07 09:15:03;;;;;;;20.33;10.60;;;;;;;20.07;57.78;102536.09;7374746;19;20015;-79
2022/05/07 09:17:33;;;;;;;21.75;11.25;;;;;;;19.94;57.37;102543.19;7366278;19;20550;-78
2022/05/07 09:20:13;;;;;;;21.48;10.45;;;;;;;20.19;57.13;102531.66;7370635;19;20843;-77
2022/05/07 09:22:55;;;;;;;20.33;9.57;;;;;;;19.90;57.14;102541.41;7370396;19;20037;-78
2022/05/07 09:25:26;;;;;;;21.90;11.10;;;;;;;19.67;58.31;102535.16;7369726;19;20450;-79
2022/05/07 09:28:01;;;;;;;21.15;11.25;;;;;;;20.09;57.50;102539.66;7375050;19;20043;-77
2022/05/07 09:30:32;;;;;;;21.45;11.55;;;;;;;20.34;57.07;102540.53;7374694;19;20014;-69
2022/05/07 09:33:02;;;;;;;22.92;12.48;;;;;;;19.90;57.99;102544.06;7381339;19;20021;-69
2022/05/07 09:38:15;;;;;;;19.73;11.88;;;;;;;19.59;57.66;102548.44;7375595;19;20126;-78
2022/05/07 09:40:46;;;;;;;22.55;11.98;;;;;;;19.47;58.88;102541.28;7375764;19;20123;-78
2022/05/07 09:43:19;;;;;;;24.58;11.90;;;;;;;19.66;58.97;102539.59;7373877;19;20003;-78
2022/05/07 09:45:49;;;;;;;21.75;12.05;;;;;;;20.11;58.22;102543.19;7379342;19;20014;-77
2022/05/07 09:48:20;;;;;;;20.35;10.95;;;;;;;20.02;58.17;102549.41;7376870;19;20011;-77
2022/05/07 09:50:50;;;;;;;24.70;12.75;;;;;;;20.53;57.19;102537.91;7376906;19;20006;-77
2022/05/07 09:58:51;;;;;;;22.13;10.80;;;;;;;20.24;57.57;102542.31;7384820;19;20015;-79
2022/05/07 10:02:08;;;;;;;17.85;9.77;;;;;;;20.67;55.83;102545.88;7383799;19;20134;-77
2022/05/07 10:04:48;;;;;;;24.38;11.70;;;;;;;20.06;57.04;102551.19;7372232;19;20007;-78
2022/05/07 10:07:31;;;;;;;22.73;11.23;;;;;;;20.34;55.96;102557.41;7372965;19;20043;-78
2022/05/07 10:10:19;;;;;;;25.48;12.30;;;;;;;20.99;56.39;102551.13;7375944;19;20042;-77
2022/05/07 10:12:49;;;;;;;21.63;10.07;;;;;;;21.07;55.00;102549.31;7371299;19;20039;-78
2022/05/07 10:15:23;;;;;;;23.00;11.65;;;;;;;20.72;54.77;102564.53;7381182;19;20014;-79
2022/05/07 10:18:03;;;;;;;24.10;13.38;;;;;;;20.38;55.52;102553.91;7378655;19;20022;-77
2022/05/07 10:20:43;;;;;;;21.20;12.48;;;;;;;20.52;55.88;102556.56;7384151;19;20090;-77
2022/05/07 10:23:13;;;;;;;27.13;14.18;;;;;;;19.70;57.17;102560.03;7375673;19;20343;-78
2022/05/07 10:25:45;;;;;;;29.15;15.68;;;;;;;19.62;58.87;102559.09;7376893;19;20010;-76
2022/05/07 10:28:16;;;;;;;28.38;15.55;;;;;;;19.68;58.84;102560.91;7375550;19;20031;-71
2022/05/07 10:30:54;;;;;;;28.27;14.27;;;;;;;19.91;58.22;102556.47;7376304;19;20592;-71
2022/05/07 10:33:25;;;;;;;25.08;12.82;;;;;;;19.89;58.32;102559.16;7375843;19;20064;-69
2022/05/07 10:35:58;;;;;;;26.02;12.30;;;;;;;19.75;58.89;102566.25;7376182;19;20134;-70
2022/05/07 10:38:30;;;;;;;22.15;11.15;;;;;;;20.36;57.26;102560.97;7379171;19;20010;-69
2022/05/07 10:41:01;;;;;;;19.60;9.88;;;;;;;20.46;56.58;102557.44;7376690;19;20006;-69
2022/05/07 10:43:34;;;;;;;23.70;11.80;;;;;;;19.66;58.67;102560.00;7381896;19;20011;-70
2022/05/07 10:46:08;;;;;;;31.85;13.95;;;;;;;19.47;60.29;102567.00;7383380;19;20460;-70
2022/05/07 10:48:46;;;;;;;26.75;14.15;;;;;;;18.89;61.27;102574.66;7378674;19;20014;-69
2022/05/07 10:51:20;;;;;;;19.90;10.98;;;;;;;18.62;61.58;102572.75;7381791;19;20018;-68
2022/05/07 10:53:51;;;;;;;24.55;11.02;;;;;;;18.63;61.46;102573.63;7374723;19;20018;-69
2022/05/07 10:56:23;;;;;;;20.20;10.60;;;;;;;18.63;61.25;102566.56;7380003;19;20043;-69
2022/05/07 10:58:57;;;;;;;22.53;11.47;;;;;;;18.63;61.97;102565.66;7379776;19;20566;-69
2022/05/07 11:01:31;;;;;;;22.75;10.90;;;;;;;19.01;61.71;102569.44;7379712;19;20050;-69
2022/05/07 11:04:06;;;;;;;25.05;11.38;;;;;;;19.67;59.77;102560.00;7380170;19;20017;-71
2022/05/07 11:06:36;;;;;;;23.23;10.73;;;;;;;20.46;57.81;102554.78;7381590;19;20483;-70
2022/05/07 11:09:06;;;;;;;20.10;10.70;;;;;;;20.37;55.97;102556.53;7379330;19;20011;-70
2022/05/07 11:11:46;;;;;;;20.98;11.82;;;;;;;20.41;55.46;102563.69;7382576;19;20019;-71
2022/05/07 11:14:26;;;;;;;24.70;13.02;;;;;;;20.23;56.56;102569.84;7375519;19;20125;-70
2022/05/07 11:17:00;;;;;;;22.65;13.05;;;;;;;19.83;58.21;102563.56;7371753;19;20376;-71
2022/05/07 11:19:32;;;;;;;26.38;13.60;;;;;;;20.13;57.15;102565.41;7376583;19;20019;-70
2022/05/07 11:22:06;;;;;;;25.95;13.10;;;;;;;20.16;56.07;102563.63;7375744;19;20018;-70
2022/05/07 11:24:36;;;;;;;23.50;13.07;;;;;;;20.08;56.88;102567.16;7377848;19;20010;-68
2022/05/07 11:27:11;;;;;;;20.75;11.13;;;;;;;20.40;56.51;102561.91;7373185;19;20471;-70
2022/05/07 11:29:42;;;;;;;22.77;12.45;;;;;;;20.00;57.32;102566.25;7376053;19;20006;-69
2022/05/07 11:32:16;;;;;;;23.07;12.53;;;;;;;19.89;57.73;102561.81;7375021;19;20504;-69
2022/05/07 11:34:46;;;;;;;20.58;10.27;;;;;;;20.37;56.24;102557.41;7377413;19;20280;-70
2022/05/07 11:37:19;;;;;;;21.10;10.93;;;;;;;20.34;55.97;102568.09;7376929;19;20042;-68
2022/05/07 11:39:50;;;;;;;21.33;11.55;;;;;;;20.12;56.73;102564.50;7375237;19;20039;-70
2022/05/07 11:42:31;;;;;;;22.20;11.25;;;;;;;20.61;57.08;102558.34;7372473;19;20787;-69
2022/05/07 11:45:33;;;;;;;22.60;11.95;;;;;;;20.33;56.51;102558.31;7373453;19;20614;-69
2022/05/07 11:48:16;;;;;;;20.20;11.30;;;;;;;19.98;57.42;102557.38;7372486;19;20010;-79
2022/05/07 11:50:54;;;;;;;20.70;10.73;;;;;;;19.98;56.82;102557.38;7374051;19;20090;-74
2022/05/07 11:53:25;;;;;;;20.83;10.25;;;;;;;20.35;56.08;102559.19;7363658;19;20015;-75
2022/05/07 11:55:54;;;;;;;16.92;10.05;;;;;;;20.33;56.38;102566.31;7373434;19;20039;-76
2022/05/07 11:58:25;;;;;;;22.58;11.00;;;;;;;20.36;57.07;102558.31;7372778;19;20007;-76